createdAt,value
2018-12-30T00:00:34.379Z,103669.82
2018-12-30T00:03:04.104Z,103674.23
2018-12-30T00:05:33.269Z,103675.27
2018-12-30T00:08:03.268Z,103677.98
2018-12-30T00:10:32.447Z,103672.54
2018-12-30T00:13:01.636Z,103668.16
2018-12-30T00:15:30.907Z,103668.16
2018-12-30T00:17:59.996Z,103658.62
2018-12-30T00:20:29.228Z,103663.73
2018-12-30T00:22:58.425Z,103669.19
2018-12-30T00:25:27.612Z,103664.80
2018-12-30T00:27:57.311Z,103665.31
2018-12-30T00:30:26.527Z,103661.73
2018-12-30T00:33:00.938Z,103670.75
2018-12-30T00:35:30.843Z,103664.67
2018-12-30T00:38:00.127Z,103658.71
2018-12-30T00:40:29.432Z,103663.09
2018-12-30T00:42:58.725Z,103655.98
2018-12-30T00:45:27.956Z,103649.70
2018-12-30T00:47:57.139Z,103654.29
2018-12-30T00:50:26.427Z,103652.63
2018-12-30T00:52:56.148Z,103651.57
2018-12-30T00:55:25.236Z,103655.14
2018-12-30T00:57:54.338Z,103651.91
2018-12-30T01:00:23.432Z,103655.14
2018-12-30T01:02:52.523Z,103649.70
2018-12-30T01:05:21.719Z,103650.55
2018-12-30T01:07:50.895Z,103654.93
2018-12-30T01:10:20.022Z,103660.71
2018-12-30T01:12:49.151Z,103660.71
2018-12-30T01:15:19.412Z,103656.30
2018-12-30T01:17:48.573Z,103660.37
2018-12-30T01:20:17.769Z,103659.34
2018-12-30T01:22:46.838Z,103653.91
2018-12-30T01:25:15.961Z,103647.95
2018-12-30T01:27:45.159Z,103640.30
2018-12-30T01:30:14.347Z,103644.38
2018-12-30T01:32:43.549Z,103638.09
2018-12-30T01:35:12.762Z,103633.16
2018-12-30T01:37:42.295Z,103636.94
2018-12-30T01:40:11.422Z,103644.46
2018-12-30T01:42:41.188Z,103641.53
2018-12-30T01:45:10.439Z,103638.30
2018-12-30T01:47:39.634Z,103635.06
2018-12-30T01:50:08.847Z,103641.32
2018-12-30T01:52:38.817Z,103653.48
2018-12-30T01:55:07.947Z,103658.71
2018-12-30T01:57:37.111Z,103666.67
2018-12-30T02:00:06.647Z,103663.09
2018-12-30T02:02:35.912Z,103663.82
2018-12-30T02:05:05.219Z,103659.73
2018-12-30T02:07:34.803Z,103667.09
2018-12-30T02:10:04.327Z,103667.59
2018-12-30T02:12:33.465Z,103663.82
2018-12-30T02:15:02.890Z,103658.07
2018-12-30T02:17:32.687Z,103659.73
2018-12-30T02:20:01.733Z,103663.00
2018-12-30T02:22:30.946Z,103667.90
2018-12-30T02:25:00.165Z,103662.80
2018-12-30T02:27:29.341Z,103662.28
2018-12-30T02:29:58.473Z,103660.37
2018-12-30T02:32:27.652Z,103663.09
2018-12-30T02:34:56.813Z,103662.58
2018-12-30T02:37:27.172Z,103663.09
2018-12-30T02:39:56.292Z,103665.82
2018-12-30T02:42:26.355Z,103669.09
2018-12-30T02:44:55.479Z,103671.27
2018-12-30T02:47:24.602Z,103674.83
2018-12-30T02:49:53.680Z,103680.80
2018-12-30T02:52:22.760Z,103677.77
2018-12-30T02:54:51.973Z,103689.30
2018-12-30T02:57:21.071Z,103687.59
2018-12-30T02:59:54.556Z,103678.28
2018-12-30T03:02:23.763Z,103685.29
2018-12-30T03:04:52.921Z,103685.50
2018-12-30T03:07:21.944Z,103687.71
2018-12-30T03:09:51.088Z,103681.08
2018-12-30T03:12:20.247Z,103688.02
2018-12-30T03:14:49.348Z,103687.50
2018-12-30T03:17:19.326Z,103684.23
2018-12-30T03:19:48.486Z,103683.21
2018-12-30T03:22:17.595Z,103680.28
2018-12-30T03:24:46.762Z,103683.84
2018-12-30T03:27:15.839Z,103673.27
2018-12-30T03:29:45.045Z,103666.16
2018-12-30T03:32:14.139Z,103664.16
2018-12-30T03:34:43.198Z,103669.59
2018-12-30T03:37:12.443Z,103675.05
2018-12-30T03:39:41.635Z,103670.45
2018-12-30T03:42:10.711Z,103660.92
2018-12-30T03:44:40.029Z,103656.20
2018-12-30T03:47:09.290Z,103658.92
2018-12-30T03:49:38.457Z,103652.93
2018-12-30T03:52:08.617Z,103660.28
2018-12-30T03:54:37.046Z,103652.93
2018-12-30T03:57:06.181Z,103655.14
2018-12-30T03:59:35.301Z,103654.84
2018-12-30T04:02:04.400Z,103646.46
2018-12-30T04:04:33.478Z,103645.09
2018-12-30T04:07:02.996Z,103640.68
2018-12-30T04:09:32.069Z,103645.61
2018-12-30T04:12:01.197Z,103639.66
2018-12-30T04:14:30.978Z,103643.23
2018-12-30T04:17:00.057Z,103641.32
2018-12-30T04:19:29.128Z,103649.83
2018-12-30T04:21:58.303Z,103639.95
2018-12-30T04:24:27.391Z,103638.30
2018-12-30T04:26:57.294Z,103635.88
2018-12-30T04:29:26.546Z,103638.60
2018-12-30T04:31:56.973Z,103636.94
2018-12-30T04:34:27.807Z,103633.36
2018-12-30T05:06:03.743Z,103604.88
2018-12-30T05:08:32.894Z,103604.36
2018-12-30T05:11:02.049Z,103600.27
2018-12-30T05:13:31.300Z,103595.89
2018-12-30T05:16:00.507Z,103594.53
2018-12-30T05:18:29.711Z,103598.61
2018-12-30T05:20:59.206Z,103608.34
2018-12-30T05:23:28.376Z,103615.15
2018-12-30T05:25:57.497Z,103619.75
2018-12-30T05:28:26.599Z,103619.75
2018-12-30T05:30:55.691Z,103620.59
2018-12-30T05:33:24.846Z,103621.41
2018-12-30T05:35:54.095Z,103625.19
2018-12-30T05:38:23.281Z,103623.83
2018-12-30T05:40:53.092Z,103627.40
2018-12-30T05:43:22.189Z,103621.41
2018-12-30T05:45:51.400Z,103614.61
2018-12-30T05:48:20.515Z,103617.33
2018-12-30T05:50:50.957Z,103622.56
2018-12-30T05:53:20.623Z,103625.28
2018-12-30T05:55:56.374Z,103626.13
2018-12-30T05:58:25.472Z,103626.13
2018-12-30T06:00:54.572Z,103626.64
2018-12-30T06:03:23.910Z,103635.36
2018-12-30T06:05:53.087Z,103639.10
2018-12-30T06:08:22.398Z,103639.64
2018-12-30T06:10:51.564Z,103636.80
2018-12-30T06:13:20.629Z,103633.77
2018-12-30T06:15:49.662Z,103622.04
2018-12-30T06:18:18.726Z,103624.25
2018-12-30T06:20:47.894Z,103622.34
2018-12-30T06:23:16.972Z,103616.59
2018-12-30T06:25:46.022Z,103613.03
2018-12-30T06:28:15.132Z,103608.43
2018-12-30T06:30:44.227Z,103621.53
2018-12-30T06:33:13.339Z,103620.34
2018-12-30T06:35:42.505Z,103617.62
2018-12-30T06:38:11.648Z,103622.25
2018-12-30T06:40:40.805Z,103627.69
2018-12-30T06:43:09.921Z,103625.78
2018-12-30T06:45:39.256Z,103626.64
2018-12-30T06:48:08.513Z,103628.33
2018-12-30T06:50:37.561Z,103624.55
2018-12-30T06:53:06.655Z,103617.95
2018-12-30T06:55:37.037Z,103629.69
2018-12-30T06:58:06.240Z,103631.05
2018-12-30T07:00:35.614Z,103637.86
2018-12-30T07:03:04.664Z,103629.87
2018-12-30T07:05:33.823Z,103637.52
2018-12-30T07:08:03.055Z,103646.20
2018-12-30T07:10:32.296Z,103647.56
2018-12-30T07:13:01.883Z,103640.45
2018-12-30T07:15:31.958Z,103642.66
2018-12-30T07:18:01.055Z,103642.02
2018-12-30T07:20:30.130Z,103652.57
2018-12-30T07:23:05.724Z,103652.78
2018-12-30T07:25:28.716Z,103664.51
2018-12-30T07:27:57.851Z,103663.16
2018-12-30T07:30:26.988Z,103669.62
2018-12-30T07:32:56.157Z,103668.16
2018-12-30T07:35:25.219Z,103669.01
2018-12-30T07:37:54.233Z,103674.12
2018-12-30T07:40:23.412Z,103680.92
2018-12-30T07:42:52.484Z,103688.78
2018-12-30T07:45:21.659Z,103692.31
2018-12-30T07:47:50.823Z,103688.05
2018-12-30T07:50:19.919Z,103683.98
2018-12-30T07:52:48.979Z,103696.53
2018-12-30T07:55:18.043Z,103701.66
2018-12-30T07:57:47.124Z,103703.33
2018-12-30T08:00:16.307Z,103704.89
2018-12-30T08:02:45.522Z,103702.17
2018-12-30T08:05:14.572Z,103707.28
2018-12-30T08:07:43.773Z,103704.05
2018-12-30T08:10:12.898Z,103704.38
2018-12-30T08:12:42.036Z,103708.13
2018-12-30T08:15:11.133Z,103712.21
2018-12-30T08:17:42.072Z,103713.27
2018-12-30T08:20:13.482Z,103715.14
2018-12-30T08:22:43.252Z,103719.52
2018-12-30T08:25:12.474Z,103721.09
2018-12-30T08:27:41.545Z,103723.30
2018-12-30T08:30:10.689Z,103727.17
2018-12-30T08:32:39.801Z,103723.09
2018-12-30T08:35:09.109Z,103720.38
2018-12-30T08:37:38.361Z,103715.44
2018-12-30T08:40:08.153Z,103717.98
2018-12-30T08:42:37.294Z,103714.94
2018-12-30T08:45:06.749Z,103720.71
2018-12-30T08:47:36.722Z,103723.43
2018-12-30T08:50:06.914Z,103717.98
2018-12-30T08:52:36.062Z,103721.66
2018-12-30T08:55:05.180Z,103718.94
2018-12-30T08:57:34.368Z,103714.34
2018-12-30T09:00:03.652Z,103713.29
2018-12-30T09:02:32.776Z,103721.76
2018-12-30T09:05:02.294Z,103721.03
2018-12-30T09:07:34.244Z,103721.89
2018-12-30T09:10:03.545Z,103724.61
2018-12-30T09:12:32.672Z,103729.03
2018-12-30T09:15:02.856Z,103723.59
2018-12-30T09:17:31.950Z,103719.50
2018-12-30T09:20:01.116Z,103719.81
2018-12-30T09:22:30.252Z,103723.68
2018-12-30T09:24:59.332Z,103730.28
2018-12-30T09:27:28.564Z,103725.69
2018-12-30T09:29:57.653Z,103727.69
2018-12-30T09:32:27.045Z,103728.54
2018-12-30T09:34:56.236Z,103728.84
2018-12-30T09:37:25.622Z,103733.23
2018-12-30T09:39:54.740Z,103733.23
2018-12-30T09:42:23.930Z,103738.16
2018-12-30T09:44:53.529Z,103743.94
2018-12-30T09:47:22.744Z,103743.40
2018-12-30T09:49:51.945Z,103749.18
2018-12-30T09:52:21.136Z,103748.13
2018-12-30T09:54:51.340Z,103753.57
2018-12-30T09:57:20.808Z,103744.68
2018-12-30T10:00:06.905Z,103743.11
2018-12-30T10:02:53.867Z,103752.77
2018-12-30T10:05:36.711Z,103751.72
2018-12-30T10:08:05.908Z,103756.78
2018-12-30T10:10:36.012Z,103760.31
2018-12-30T10:13:05.383Z,103756.57
2018-12-30T10:15:35.629Z,103756.36
2018-12-30T10:18:04.832Z,103759.39
2018-12-30T10:20:34.013Z,103766.02
2018-12-30T10:26:06.838Z,103765.09
2018-12-30T10:28:37.482Z,103769.99
2018-12-30T10:31:12.028Z,103772.54
2018-12-30T10:33:41.219Z,103775.87
2018-12-30T10:36:10.360Z,103773.79
2018-12-30T10:38:39.470Z,103776.13
2018-12-30T10:41:08.782Z,103774.86
2018-12-30T10:43:37.959Z,103764.09
2018-12-30T10:46:07.312Z,103767.45
2018-12-30T10:48:36.479Z,103764.73
2018-12-30T10:51:05.845Z,103769.64
2018-12-30T10:53:35.075Z,103763.38
2018-12-30T10:56:04.574Z,103762.02
2018-12-30T10:58:33.825Z,103757.20
2018-12-30T11:01:03.252Z,103758.87
2018-12-30T11:03:32.539Z,103752.58
2018-12-30T11:06:01.757Z,103750.70
2018-12-30T11:08:31.076Z,103747.77
2018-12-30T11:11:00.327Z,103747.77
2018-12-30T11:13:30.305Z,103750.83
2018-12-30T11:16:00.315Z,103742.44
2018-12-30T11:18:29.917Z,103742.53
2018-12-30T11:20:59.276Z,103743.17
2018-12-30T11:23:28.544Z,103738.36
2018-12-30T11:25:57.829Z,103743.30
2018-12-30T11:28:27.144Z,103737.84
2018-12-30T11:30:56.342Z,103739.00
2018-12-30T11:33:25.827Z,103734.70
2018-12-30T11:35:54.924Z,103733.46
2018-12-30T11:38:25.834Z,103739.00
2018-12-30T11:40:56.308Z,103740.61
2018-12-30T11:43:25.486Z,103729.50
2018-12-30T11:45:54.788Z,103722.78
2018-12-30T11:48:23.964Z,103721.84
2018-12-30T11:50:53.934Z,103722.69
2018-12-30T11:53:23.415Z,103722.27
2018-12-30T11:55:52.593Z,103716.08
2018-12-30T11:58:21.664Z,103727.41
2018-12-30T12:00:51.579Z,103709.81
2018-12-30T12:03:20.921Z,103707.80
2018-12-30T12:05:50.124Z,103698.27
2018-12-30T12:08:20.580Z,103704.56
2018-12-30T12:10:50.766Z,103705.72
2018-12-30T12:13:26.770Z,103703.66
2018-12-30T12:15:56.707Z,103699.35
2018-12-30T12:18:33.756Z,103693.90
2018-12-30T12:21:02.963Z,103693.90
2018-12-30T12:23:32.136Z,103687.63
2018-12-30T12:26:01.425Z,103677.88
2018-12-30T12:28:30.556Z,103674.08
2018-12-30T12:30:59.995Z,103670.55
2018-12-30T12:33:29.738Z,103673.56
2018-12-30T12:35:58.988Z,103661.81
2018-12-30T12:38:28.297Z,103662.66
2018-12-30T12:40:57.450Z,103658.06
2018-12-30T12:43:26.973Z,103649.03
2018-12-30T12:45:56.460Z,103654.19
2018-12-30T12:48:25.732Z,103642.73
2018-12-30T12:50:55.927Z,103648.81
2018-12-30T12:53:25.115Z,103647.79
2018-12-30T12:55:54.420Z,103649.78
2018-12-30T12:58:23.588Z,103643.27
2018-12-30T13:00:53.431Z,103641.17
2018-12-30T13:03:22.832Z,103643.98
2018-12-30T13:05:58.714Z,103639.07
2018-12-30T13:08:28.082Z,103643.46
2018-12-30T13:10:59.515Z,103651.20
2018-12-30T13:13:29.395Z,103649.55
2018-12-30T13:16:03.363Z,103655.00
2018-12-30T13:18:27.813Z,103653.64
2018-12-30T13:20:59.370Z,103647.34
2018-12-30T13:23:28.549Z,103649.84
2018-12-30T13:25:58.339Z,103650.61
2018-12-30T13:28:29.293Z,103654.88
2018-12-30T13:30:58.577Z,103651.64
2018-12-30T13:33:28.034Z,103657.31
2018-12-30T13:35:57.389Z,103652.92
2018-12-30T13:38:28.405Z,103658.67
2018-12-30T13:40:56.035Z,103661.10
2018-12-30T13:43:25.186Z,103658.16
2018-12-30T13:45:55.298Z,103662.88
2018-12-30T13:48:24.382Z,103666.54
2018-12-30T13:50:53.617Z,103665.80
2018-12-30T13:53:22.979Z,103667.47
2018-12-30T13:55:52.063Z,103666.11
2018-12-30T13:58:21.220Z,103664.73
2018-12-30T14:00:50.451Z,103663.92
2018-12-30T14:03:19.544Z,103664.95
2018-12-30T14:05:48.659Z,103668.63
2018-12-30T14:08:17.879Z,103669.15
2018-12-30T14:10:47.258Z,103676.52
2018-12-30T14:13:21.477Z,103674.81
2018-12-30T14:15:51.124Z,103677.55
2018-12-30T14:18:19.963Z,103674.19
2018-12-30T14:20:49.483Z,103678.28
2018-12-30T14:23:18.708Z,103676.09
2018-12-30T14:25:47.772Z,103686.79
2018-12-30T14:28:17.165Z,103687.30
2018-12-30T14:30:46.406Z,103681.34
2018-12-30T14:33:15.466Z,103683.43
2018-12-30T14:35:44.655Z,103691.91
2018-12-30T14:38:13.971Z,103693.48
2018-12-30T14:40:43.215Z,103690.77
2018-12-30T14:43:12.389Z,103691.09
2018-12-30T14:45:41.591Z,103696.33
2018-12-30T14:48:11.189Z,103693.61
2018-12-30T14:50:40.458Z,103688.67
2018-12-30T14:53:18.848Z,103696.84
2018-12-30T14:55:40.036Z,103692.76
2018-12-30T14:58:09.253Z,103699.80
2018-12-30T15:00:38.930Z,103696.22
2018-12-30T15:03:08.202Z,103698.09
2018-12-30T15:05:37.297Z,103692.04
2018-12-30T15:08:06.484Z,103696.95
2018-12-30T15:10:35.627Z,103697.28
2018-12-30T15:13:05.982Z,103699.16
2018-12-30T15:15:35.280Z,103704.61
2018-12-30T15:18:04.532Z,103707.55
2018-12-30T15:20:33.853Z,103706.41
2018-12-30T15:23:03.018Z,103707.44
2018-12-30T15:25:32.157Z,103708.16
2018-12-30T15:28:01.407Z,103708.89
2018-12-30T15:30:30.703Z,103708.29
2018-12-30T15:32:59.942Z,103704.05
2018-12-30T15:35:29.240Z,103711.08
2018-12-30T15:37:58.370Z,103717.56
2018-12-30T15:40:27.790Z,103717.77
2018-12-30T15:42:56.930Z,103711.69
2018-12-30T15:45:26.271Z,103717.05
2018-12-30T15:47:55.542Z,103713.17
2018-12-30T15:50:24.704Z,103712.00
2018-12-30T15:52:53.882Z,103718.72
2018-12-30T15:55:23.052Z,103714.30
2018-12-30T15:57:52.249Z,103717.02
2018-12-30T16:00:22.333Z,103713.48
2018-12-30T16:25:52.616Z,103726.35
2018-12-30T16:28:23.553Z,103721.63
2018-12-30T16:30:53.356Z,103727.80
2018-12-30T16:33:22.770Z,103721.50
2018-12-30T16:35:51.976Z,103727.68
2018-12-30T16:38:21.104Z,103729.89
2018-12-30T16:40:50.443Z,103728.22
2018-12-30T16:43:19.601Z,103729.59
2018-12-30T16:45:48.795Z,103731.98
2018-12-30T16:48:17.958Z,103729.67
2018-12-30T16:50:47.007Z,103727.16
2018-12-30T16:53:16.429Z,103729.55
2018-12-30T16:55:45.755Z,103731.97
2018-12-30T16:58:14.841Z,103734.91
2018-12-30T17:00:44.022Z,103731.55
2018-12-30T17:03:13.311Z,103733.94
2018-12-30T17:05:42.523Z,103733.62
2018-12-30T17:08:11.777Z,103730.98
2018-12-30T17:10:40.925Z,103729.84
2018-12-30T17:13:10.097Z,103728.90
2018-12-30T17:15:39.298Z,103740.52
2018-12-30T17:18:08.572Z,103739.88
2018-12-30T17:20:37.633Z,103732.94
2018-12-30T17:23:06.844Z,103736.38
2018-12-30T17:25:42.838Z,103736.94
2018-12-30T17:28:05.529Z,103740.67
2018-12-30T17:30:37.595Z,103738.50
2018-12-30T17:33:06.873Z,103739.02
2018-12-30T17:35:36.548Z,103744.25
2018-12-30T17:38:05.797Z,103740.47
2018-12-30T17:40:38.630Z,103743.19
2018-12-30T17:43:04.055Z,103736.08
2018-12-30T17:45:33.220Z,103732.00
2018-12-30T17:48:02.261Z,103733.56
2018-12-30T17:50:31.386Z,103734.80
2018-12-30T17:53:01.197Z,103732.80
2018-12-30T17:55:30.972Z,103729.98
2018-12-30T17:58:00.186Z,103734.58
2018-12-30T18:00:29.278Z,103727.13
2018-12-30T18:02:58.417Z,103724.75
2018-12-30T18:05:27.546Z,103728.70
2018-12-30T18:07:56.733Z,103729.30
2018-12-30T18:10:26.649Z,103730.05
2018-12-30T18:12:55.802Z,103724.47
2018-12-30T18:15:24.961Z,103728.97
2018-12-30T18:17:54.402Z,103738.06
2018-12-30T18:20:24.176Z,103737.80
2018-12-30T18:22:53.635Z,103733.83
2018-12-30T18:25:22.987Z,103735.70
2018-12-30T18:27:52.079Z,103739.66
2018-12-30T18:30:21.175Z,103742.58
2018-12-30T18:32:50.282Z,103740.06
2018-12-30T18:35:19.306Z,103735.03
2018-12-30T18:37:48.522Z,103740.86
2018-12-30T18:40:17.616Z,103747.56
2018-12-30T18:42:46.831Z,103751.84
2018-12-30T18:45:16.033Z,103749.84
2018-12-30T18:47:45.025Z,103748.14
2018-12-30T18:50:14.123Z,103751.58
2018-12-30T18:52:43.534Z,103756.38
2018-12-30T18:55:12.701Z,103756.07
2018-12-30T18:57:42.722Z,103758.79
2018-12-30T19:00:12.243Z,103754.70
2018-12-30T19:02:42.688Z,103756.27
2018-12-30T19:05:11.798Z,103754.58
2018-12-30T19:07:40.954Z,103756.78
2018-12-30T19:10:10.181Z,103757.50
2018-12-30T19:12:39.307Z,103755.12
2018-12-30T19:15:09.414Z,103759.84
2018-12-30T19:17:38.537Z,103759.64
2018-12-30T19:20:07.709Z,103754.70
2018-12-30T19:22:36.825Z,103758.14
2018-12-30T19:25:08.052Z,103757.63
2018-12-30T19:27:37.518Z,103767.59
2018-12-30T19:30:15.454Z,103766.37
2018-12-30T19:32:45.094Z,103765.63
2018-12-30T19:35:19.040Z,103770.34
2018-12-30T19:37:50.630Z,103770.14
2018-12-30T19:40:21.062Z,103768.78
2018-12-30T19:42:51.444Z,103773.41
2018-12-30T19:45:20.578Z,103780.85
2018-12-30T19:47:49.867Z,103775.08
2018-12-30T19:50:19.378Z,103779.80
2018-12-30T19:52:53.067Z,103779.59
2018-12-30T19:55:22.730Z,103781.47
2018-12-30T19:57:51.980Z,103782.31
2018-12-30T20:00:21.043Z,103779.94
2018-12-30T20:02:50.427Z,103773.95
2018-12-30T20:05:19.598Z,103779.39
2018-12-30T20:07:48.820Z,103775.14
2018-12-30T20:10:17.967Z,103778.16
2018-12-30T20:12:47.088Z,103773.57
2018-12-30T20:15:16.221Z,103776.59
2018-12-30T20:17:45.367Z,103769.59
2018-12-30T20:20:14.483Z,103773.80
2018-12-30T20:22:43.699Z,103772.37
2018-12-30T20:25:12.901Z,103765.36
2018-12-30T20:27:42.071Z,103764.00
2018-12-30T20:30:11.499Z,103766.52
2018-12-30T20:32:40.723Z,103764.64
2018-12-30T20:35:09.841Z,103773.32
2018-12-30T20:37:38.988Z,103764.84
2018-12-30T20:40:08.287Z,103766.52
2018-12-30T20:42:37.526Z,103770.90
2018-12-30T20:45:06.902Z,103766.52
2018-12-30T20:47:36.031Z,103767.03
2018-12-30T20:50:06.457Z,103769.55
2018-12-30T20:52:35.756Z,103764.73
2018-12-30T20:55:05.555Z,103773.75
2018-12-30T20:57:34.645Z,103773.45
2018-12-30T21:00:03.862Z,103762.43
2018-12-30T21:02:32.908Z,103760.22
2018-12-30T21:05:02.000Z,103766.72
2018-12-30T21:07:31.094Z,103766.38
2018-12-30T21:10:00.223Z,103761.69
2018-12-30T21:12:29.339Z,103759.99
2018-12-30T21:14:58.583Z,103757.27
2018-12-30T21:17:28.056Z,103753.19
2018-12-30T21:19:57.184Z,103750.80
2018-12-30T21:22:27.010Z,103750.26
2018-12-30T21:24:56.119Z,103758.55
2018-12-30T21:27:25.211Z,103754.47
2018-12-30T21:29:54.288Z,103752.77
2018-12-30T21:32:23.472Z,103751.75
2018-12-30T21:34:52.512Z,103743.89
2018-12-30T21:37:21.581Z,103743.89
2018-12-30T21:39:51.969Z,103746.61
2018-12-30T21:42:21.068Z,103745.05
2018-12-30T22:16:43.499Z,103753.42
2018-12-30T22:19:12.799Z,103750.70
2018-12-30T22:21:41.966Z,103749.67
2018-12-30T22:24:11.160Z,103753.75
2018-12-30T22:26:40.271Z,103754.06
2018-12-30T22:29:09.584Z,103752.39
2018-12-30T22:31:38.663Z,103757.63
2018-12-30T22:34:13.961Z,103755.42
2018-12-30T22:36:43.159Z,103756.78
2018-12-30T22:39:12.195Z,103752.70
2018-12-30T22:41:41.524Z,103753.03
2018-12-30T22:44:10.716Z,103754.39
2018-12-30T22:46:39.868Z,103756.27
2018-12-30T22:49:08.943Z,103758.48
2018-12-30T22:51:38.311Z,103757.42
2018-12-30T22:54:07.502Z,103752.83
2018-12-30T22:56:36.586Z,103756.06
2018-12-30T22:59:05.699Z,103755.76
2018-12-30T23:01:39.077Z,103758.14
2018-12-30T23:04:08.121Z,103752.39
2018-12-30T23:06:37.171Z,103757.50
2018-12-30T23:09:08.079Z,103755.83
2018-12-30T23:11:37.206Z,103758.34
2018-12-30T23:14:06.323Z,103761.07
2018-12-30T23:16:35.383Z,103755.11
2018-12-30T23:19:04.520Z,103756.78
2018-12-30T23:21:33.712Z,103759.30
2018-12-30T23:24:02.831Z,103758.48
2018-12-30T23:26:31.929Z,103753.34
2018-12-30T23:29:01.092Z,103759.94
2018-12-30T23:31:30.194Z,103758.06
2018-12-30T23:33:59.315Z,103749.39
2018-12-30T23:36:28.424Z,103754.63
2018-12-30T23:38:57.452Z,103755.14
2018-12-30T23:41:26.587Z,103748.33
2018-12-30T23:43:55.664Z,103754.93
2018-12-30T23:46:24.985Z,103755.98
2018-12-30T23:48:54.247Z,103759.73
2018-12-30T23:51:23.347Z,103764.88
2018-12-30T23:53:52.363Z,103763.81
2018-12-30T23:56:21.451Z,103762.45
2018-12-30T23:58:51.436Z,103764.88
